Weather at Charles de Gaulle International Airport

Public forecast

Using degrees Celsius for public forecast. Weather courtesy of forecast.io.

Current aviation weather report (METAR) for Charles de Gaulle International Airport

Retrieved 2021/07/29 08:30 UTC (0 seconds ago):

LFPG 290830Z 24009KT 210V280 9999 SCT026 19/11 Q1015 NOSIG

Aviation forecast (TAF) for Charles de Gaulle International Airport

Retrieved 2021/07/29 06:23 UTC (2 hours ago):

TAF LFPG 290500Z 2906/3012 23010KT CAVOK TX23/2914Z TN15/3003Z BECMG 3007/3010 23020G30KT